Terminal Aerodrome Forecast
Issued by NWS Wilmington, NC

Current Version | Previous Version | Graphics & Text | Print | Product List | Glossary Off
Versions: 1 2 3 4 5 6 7 8 9 10 11 12 13 14 15 16 17 18 19

000
FTUS42 KILM 181724
TAFILM
TAF
KILM 181724Z 1818/1918 09005KT P6SM VCSH BKN012
     FM181900 05006KT P6SM VCSH SCT016 BKN020
      TEMPO 1908/1911 4SM BR
     FM191400 09008KT P6SM -SHRA BKN016
      TEMPO 1915/1918 2SM +SHRA BKN012=

USA.gov is the U.S. government's official web portal to all federal, state and local government web resources and services.